Time;durP1;ratioP1;P1;durP2;ratioP2;P2;SDS_P1;SDS_P2;PMS_P1;PMS_P2;Temp;Humidity;BMP_temperature;BMP_pressure;BME280_temperature;BME280_humidity;BME280_pressure;Samples;Min_cycle;Max_cycle;Signal;HPM_P1;HPM_P2
2022/06/11 00:02:23;;;;;;;15.95;14.30;;;;;;;13.35;89.16;99382.05;2237948;79;20907;-81
2022/06/11 00:05:24;;;;;;;146.90;22.20;;;;;;;13.30;88.92;99379.38;2236767;79;21311;-81
2022/06/11 00:08:25;;;;;;;25.50;15.88;;;;;;;13.26;89.13;99392.44;2237075;80;21307;-80
2022/06/11 00:11:25;;;;;;;16.57;14.87;;;;;;;13.27;89.45;99390.27;2237415;79;20932;-80
2022/06/11 00:14:25;;;;;;;18.48;14.93;;;;;;;13.23;89.25;99396.34;2237544;79;20916;-80
2022/06/11 00:17:26;;;;;;;17.57;15.80;;;;;;;13.20;89.12;99391.95;2237414;79;20888;-80
2022/06/11 00:20:26;;;;;;;17.00;15.43;;;;;;;13.17;89.42;99396.28;2237374;79;20986;-80
2022/06/11 00:23:26;;;;;;;25.08;14.80;;;;;;;13.16;89.29;99399.30;2237360;79;20912;-80
2022/06/11 00:26:27;;;;;;;18.70;16.25;;;;;;;13.14;89.35;99397.09;2237490;79;20908;-80
2022/06/11 00:29:28;;;;;;;17.07;15.28;;;;;;;13.11;89.18;99398.37;2237469;79;20999;-80
2022/06/11 00:32:28;;;;;;;20.20;15.67;;;;;;;13.13;89.67;99393.15;2237750;79;20971;-80
2022/06/11 00:35:29;;;;;;;17.07;15.25;;;;;;;13.15;89.75;99394.05;2237848;79;20936;-80
2022/06/11 00:38:28;;;;;;;16.82;15.13;;;;;;;13.13;89.32;99395.34;2237661;79;20920;-81
2022/06/11 00:41:29;;;;;;;26.42;21.55;;;;;;;13.08;89.01;99383.93;2237529;79;20932;-80
2022/06/11 00:44:32;;;;;;;32.90;24.57;;;;;;;13.10;89.96;99393.12;2210008;80;20937;-80
2022/06/11 00:47:32;;;;;;;24.27;18.90;;;;;;;13.14;91.25;99392.28;2209991;79;20979;-80
2022/06/11 00:50:33;;;;;;;18.80;16.85;;;;;;;13.10;90.15;99391.37;2210447;79;20944;-80
2022/06/11 00:53:33;;;;;;;23.57;16.32;;;;;;;13.05;89.86;99391.33;2210442;79;20940;-80
2022/06/11 00:56:33;;;;;;;20.75;18.52;;;;;;;13.01;89.37;99388.66;2210638;79;20921;-80
2022/06/11 00:59:34;;;;;;;21.82;17.57;;;;;;;12.91;89.24;99388.08;2209378;79;21399;-80
2022/06/11 01:02:34;;;;;;;23.38;19.10;;;;;;;12.85;89.33;99395.44;2208866;79;21012;-80
2022/06/11 01:05:35;;;;;;;21.93;18.77;;;;;;;12.82;89.38;99393.21;2208727;79;20956;-80
2022/06/11 01:08:36;;;;;;;19.42;17.37;;;;;;;12.78;89.65;99392.73;2208830;79;20929;-80
2022/06/11 01:11:36;;;;;;;23.38;16.70;;;;;;;12.80;90.28;99386.65;2208552;79;20936;-80
2022/06/11 01:14:36;;;;;;;15.50;13.70;;;;;;;12.85;90.52;99385.39;2208929;79;20964;-80
2022/06/11 01:17:36;;;;;;;16.82;13.95;;;;;;;12.88;90.69;99381.49;2210329;79;20952;-81
2022/06/11 01:20:41;;;;;;;15.30;13.90;;;;;;;12.90;91.14;99377.16;2209852;79;20979;-79
2022/06/11 01:23:37;;;;;;;21.25;19.10;;;;;;;12.92;91.36;99373.69;2209680;79;20957;-79
2022/06/11 01:26:37;;;;;;;14.38;13.18;;;;;;;12.94;90.74;99381.56;2209720;79;20945;-80
2022/06/11 01:29:38;;;;;;;13.98;12.78;;;;;;;12.91;90.36;99378.91;2209345;79;20976;-79
2022/06/11 01:32:40;;;;;;;22.95;13.93;;;;;;;12.91;90.61;99381.53;2209437;79;20976;-79
2022/06/11 01:35:39;;;;;;;13.65;12.33;;;;;;;12.91;91.18;99374.55;2209530;79;20940;-79
2022/06/11 01:38:39;;;;;;;11.20;10.30;;;;;;;12.90;90.63;99370.59;2209539;79;20972;-79
2022/06/11 01:41:39;;;;;;;12.88;11.75;;;;;;;12.83;90.09;99372.27;2209519;79;20942;-79
2022/06/11 01:44:40;;;;;;;18.70;12.65;;;;;;;12.74;89.93;99374.36;2235777;80;20964;-80
2022/06/11 01:47:40;;;;;;;17.92;11.60;;;;;;;12.67;90.14;99383.44;2236515;79;20919;-79
2022/06/11 01:50:41;;;;;;;15.95;11.55;;;;;;;12.63;90.28;99390.81;2236249;79;20959;-80
2022/06/11 01:53:41;;;;;;;13.03;11.40;;;;;;;12.62;90.44;99389.93;2236537;79;20931;-80
2022/06/11 01:56:41;;;;;;;16.97;10.85;;;;;;;12.64;90.64;99388.20;2236821;79;20936;-80
2022/06/11 01:59:42;;;;;;;13.22;11.90;;;;;;;12.69;90.84;99383.91;2236940;79;20983;-80
2022/06/11 02:02:42;;;;;;;17.95;12.30;;;;;;;12.65;90.53;99389.97;2236752;79;20968;-79
2022/06/11 02:05:44;;;;;;;11.70;10.50;;;;;;;12.66;90.44;99396.08;2237304;79;20947;-80
2022/06/11 02:08:43;;;;;;;10.85;9.95;;;;;;;12.61;90.05;99389.48;2237449;79;20968;-80
2022/06/11 02:11:43;;;;;;;11.75;10.10;;;;;;;12.54;89.59;99388.08;2237116;79;20960;-80
2022/06/11 02:14:44;;;;;;;12.70;11.55;;;;;;;12.49;89.70;99389.33;2237352;79;20932;-80
2022/06/11 02:17:44;;;;;;;20.50;12.20;;;;;;;12.47;90.01;99384.50;2237328;80;21355;-79
2022/06/11 02:20:45;;;;;;;16.55;13.90;;;;;;;12.48;90.96;99377.53;2236987;79;20931;-80
2022/06/11 02:23:45;;;;;;;13.32;12.23;;;;;;;13.03;92.99;99379.95;2236796;79;20944;-80
2022/06/11 02:26:45;;;;;;;20.32;13.18;;;;;;;12.91;90.57;99381.53;2237678;79;21283;-81
2022/06/11 02:29:46;;;;;;;54.27;44.13;;;;;;;12.84;90.29;99373.16;2237285;79;20963;-80
2022/06/11 02:32:46;;;;;;;22.13;19.05;;;;;;;12.78;89.62;99371.77;2236939;79;20975;-80
2022/06/11 02:35:47;;;;;;;19.85;12.40;;;;;;;12.67;89.18;99376.89;2237095;79;20889;-80
2022/06/11 02:38:47;;;;;;;13.55;11.93;;;;;;;12.56;89.19;99382.00;2237246;79;20963;-80
2022/06/11 02:41:48;;;;;;;13.03;11.80;;;;;;;12.50;89.19;99384.54;2236894;79;20936;-80
2022/06/11 02:44:48;;;;;;;13.18;11.93;;;;;;;12.47;89.39;99384.50;2237196;79;21042;-80
2022/06/11 02:47:48;;;;;;;50.73;36.05;;;;;;;12.43;89.11;99384.02;2237023;79;21358;-79
2022/06/11 02:50:49;;;;;;;30.95;27.65;;;;;;;12.40;88.90;99387.90;2237075;79;20900;-80
2022/06/11 02:53:49;;;;;;;37.28;30.82;;;;;;;12.41;89.08;99392.28;2236911;79;20959;-79
2022/06/11 02:56:49;;;;;;;15.75;14.15;;;;;;;12.39;89.02;99391.37;2236259;79;21369;-79
2022/06/11 02:59:50;;;;;;;40.50;14.35;;;;;;;12.38;88.93;99397.05;2236045;79;21003;-79
2022/06/11 03:02:50;;;;;;;17.52;13.30;;;;;;;12.37;88.91;99394.41;2236090;79;20987;-79
2022/06/11 03:05:52;;;;;;;15.93;13.00;;;;;;;12.38;89.04;99391.80;2235541;80;20956;-79
2022/06/11 03:08:51;;;;;;;18.35;13.83;;;;;;;12.37;88.78;99395.28;2236025;79;20928;-80
2022/06/11 03:11:52;;;;;;;18.42;13.83;;;;;;;12.41;89.11;99402.75;2235970;79;20995;-79
2022/06/11 03:14:52;;;;;;;16.90;13.70;;;;;;;12.42;89.03;99402.77;2236237;79;20944;-80
2022/06/11 03:17:52;;;;;;;90.07;17.80;;;;;;;12.44;88.86;99398.44;2236590;79;20936;-80
2022/06/11 03:20:53;;;;;;;15.98;14.47;;;;;;;12.47;89.30;99404.14;2236769;79;20967;-80
2022/06/11 03:23:53;;;;;;;17.15;14.07;;;;;;;12.58;89.27;99401.23;2236678;79;21295;-80
2022/06/11 03:26:54;;;;;;;14.43;13.15;;;;;;;12.58;88.60;99403.84;2236898;79;20940;-80
2022/06/11 03:29:54;;;;;;;30.20;23.57;;;;;;;12.57;88.47;99405.13;2236729;79;20991;-80
2022/06/11 03:32:54;;;;;;;15.58;14.07;;;;;;;12.54;88.53;99409.91;2236339;79;20943;-79
2022/06/11 03:35:55;;;;;;;26.23;14.03;;;;;;;12.54;88.41;99409.02;2236199;79;21389;-79
2022/06/11 03:38:55;;;;;;;18.67;13.68;;;;;;;12.56;88.34;99416.47;2236420;79;21042;-80
2022/06/11 03:41:56;;;;;;;16.32;13.15;;;;;;;12.62;88.81;99427.91;2235709;79;21217;-80
2022/06/11 03:44:56;;;;;;;15.43;13.50;;;;;;;12.73;89.05;99427.61;2234413;79;20959;-80
2022/06/11 03:47:56;;;;;;;14.63;13.25;;;;;;;12.83;88.99;99429.03;2236130;79;20986;-81
2022/06/11 03:50:57;;;;;;;17.90;12.82;;;;;;;12.90;89.21;99424.31;2236657;79;20986;-81
2022/06/11 03:53:57;;;;;;;14.38;12.10;;;;;;;13.01;89.82;99419.67;2236356;79;20919;-80
2022/06/11 03:56:58;;;;;;;16.02;13.08;;;;;;;13.14;89.41;99421.13;2235636;79;20986;-81
2022/06/11 03:59:58;;;;;;;13.98;12.53;;;;;;;13.30;89.54;99425.69;2235911;79;21078;-80
2022/06/11 04:02:58;;;;;;;16.02;13.30;;;;;;;13.54;89.88;99419.80;2236047;79;20975;-81
2022/06/11 04:05:59;;;;;;;18.65;13.58;;;;;;;13.78;90.25;99426.57;2237526;79;20936;-81
2022/06/11 04:08:59;;;;;;;16.07;12.93;;;;;;;14.05;90.25;99430.30;2235866;79;21018;-80
2022/06/11 04:12:00;;;;;;;13.00;11.70;;;;;;;14.31;90.10;99427.42;2235354;80;21436;-79
2022/06/11 04:15:00;;;;;;;20.97;12.20;;;;;;;14.60;89.27;99427.17;2235610;79;20986;-79
2022/06/11 04:18:00;;;;;;;13.22;11.93;;;;;;;14.84;88.84;99414.61;2235920;79;20888;-80
2022/06/11 04:21:01;;;;;;;13.40;12.03;;;;;;;15.03;88.00;99416.86;2235152;79;21373;-78
2022/06/11 04:24:01;;;;;;;13.25;11.88;;;;;;;15.25;87.54;99417.36;2234370;79;20974;-82
2022/06/11 04:27:02;;;;;;;12.03;10.80;;;;;;;15.42;86.76;99408.62;2234531;79;21014;-82
2022/06/11 04:30:02;;;;;;;13.03;11.45;;;;;;;15.57;86.25;99403.37;2233445;79;21019;-82
2022/06/11 04:33:02;;;;;;;12.75;11.55;;;;;;;15.71;85.42;99401.69;2232925;79;21394;-80
2022/06/11 04:36:03;;;;;;;12.57;11.27;;;;;;;15.86;84.73;99404.31;2233348;79;20978;-81
2022/06/11 04:39:03;;;;;;;14.63;10.20;;;;;;;15.97;84.22;99412.20;2234119;79;20940;-83
2022/06/11 04:42:04;;;;;;;10.25;9.05;;;;;;;16.10;83.27;99410.00;2233586;79;21031;-81
2022/06/11 04:45:04;;;;;;;9.65;8.75;;;;;;;16.14;83.07;99409.11;2233734;79;21050;-81
2022/06/11 04:48:04;;;;;;;9.53;8.65;;;;;;;16.27;82.37;99407.33;2234002;80;21006;-82
2022/06/11 04:51:05;;;;;;;9.50;8.60;;;;;;;16.42;81.96;99420.47;2234519;80;21941;-84
2022/06/11 04:54:05;;;;;;;9.28;7.90;;;;;;;16.55;81.32;99419.58;2234781;79;21048;-82
2022/06/11 04:57:06;;;;;;;7.83;7.12;;;;;;;16.68;81.42;99431.00;2234914;79;20963;-82
2022/06/11 05:00:07;;;;;;;8.40;7.70;;;;;;;16.86;80.52;99423.45;2235305;79;21023;-82
2022/06/11 05:03:07;;;;;;;8.85;8.05;;;;;;;17.02;79.83;99430.41;2235269;79;21397;-80
2022/06/11 05:06:07;;;;;;;7.80;7.00;;;;;;;17.21;79.35;99432.52;2234919;79;20947;-82
2022/06/11 05:09:07;;;;;;;21.87;9.15;;;;;;;17.39;79.28;99435.52;2235147;79;21016;-83
2022/06/11 05:12:11;;;;;;;7.83;7.03;;;;;;;17.55;77.97;99437.17;2236781;80;21074;-82
2022/06/11 05:15:11;;;;;;;7.28;6.62;;;;;;;17.63;77.36;99438.00;2236097;79;21005;-81
2022/06/11 05:18:11;;;;;;;9.38;6.70;;;;;;;17.79;76.96;99436.15;2234681;79;21346;-80
2022/06/11 05:21:12;;;;;;;7.62;6.12;;;;;;;17.90;76.10;99437.38;2233860;79;21042;-79
2022/06/11 05:24:12;;;;;;;6.90;6.25;;;;;;;18.08;76.25;99441.19;2233839;79;20959;-82
2022/06/11 05:27:13;;;;;;;7.22;6.62;;;;;;;18.27;76.01;99441.48;2234655;78;20959;-80
2022/06/11 05:30:15;;;;;;;8.28;6.25;;;;;;;18.52;74.15;99443.88;2236280;79;21339;-82
2022/06/11 05:33:16;;;;;;;7.58;6.55;;;;;;;18.57;73.48;99440.28;2236445;79;20980;-81
2022/06/11 05:36:16;;;;;;;6.60;5.95;;;;;;;18.67;73.81;99445.05;2236151;80;21394;-81
2022/06/11 05:39:20;;;;;;;7.22;5.70;;;;;;;18.83;73.39;99445.75;2236918;79;20967;-81
2022/06/11 05:42:20;;;;;;;6.53;5.80;;;;;;;18.97;73.30;99438.52;2235780;79;21002;-81
2022/06/11 05:45:20;;;;;;;5.95;5.53;;;;;;;19.18;71.51;99445.34;2210748;79;20995;-81
2022/06/11 05:48:21;;;;;;;6.70;6.00;;;;;;;19.13;70.49;99448.50;2206975;79;21027;-81
2022/06/11 05:51:21;;;;;;;6.17;5.60;;;;;;;19.07;71.13;99446.36;2207963;79;20968;-81
2022/06/11 05:54:22;;;;;;;6.10;5.60;;;;;;;19.13;71.34;99447.17;2207846;79;21510;-82
2022/06/11 05:57:22;;;;;;;7.00;6.33;;;;;;;19.32;70.75;99446.03;2208047;79;20968;-81
2022/06/11 06:00:22;;;;;;;7.35;5.50;;;;;;;19.40;70.04;99448.12;2207645;79;21067;-82
2022/06/11 06:03:23;;;;;;;6.53;5.65;;;;;;;19.53;70.29;99458.99;2208795;79;21172;-81
2022/06/11 06:06:23;;;;;;;10.15;5.80;;;;;;;19.67;69.90;99458.78;2208760;79;20960;-81
2022/06/11 06:09:24;;;;;;;9.08;5.67;;;;;;;19.82;67.76;99461.65;2209201;79;20944;-81
2022/06/11 06:12:24;;;;;;;5.83;5.33;;;;;;;19.81;68.63;99464.75;2210225;79;20975;-81
2022/06/11 06:15:24;;;;;;;7.85;5.40;;;;;;;19.95;68.51;99464.11;2208396;79;21014;-81
2022/06/11 06:18:25;;;;;;;6.80;5.65;;;;;;;20.13;68.15;99468.23;2207851;79;21382;-81
2022/06/11 06:21:25;;;;;;;5.95;5.35;;;;;;;20.39;68.42;99472.20;2207444;79;20952;-83
2022/06/11 06:24:26;;;;;;;6.70;5.67;;;;;;;20.66;67.44;99465.09;2207283;81;21036;-82
2022/06/11 06:27:26;;;;;;;7.15;5.20;;;;;;;20.70;66.58;99463.26;2207836;79;21339;-81
2022/06/11 06:30:27;;;;;;;9.90;5.50;;;;;;;20.90;66.86;99467.75;2206705;79;21012;-82
2022/06/11 06:33:27;;;;;;;4.85;4.35;;;;;;;21.13;65.80;99466.83;2207444;79;21352;-82
2022/06/11 06:36:27;;;;;;;6.12;5.00;;;;;;;21.27;64.85;99467.90;2207504;79;20972;-82
2022/06/11 06:39:28;;;;;;;6.85;5.53;;;;;;;21.47;64.12;99472.31;2207406;79;21015;-82
2022/06/11 06:42:28;;;;;;;5.00;4.20;;;;;;;21.35;64.12;99467.28;2207649;79;21010;-81
2022/06/11 06:45:29;;;;;;;8.05;4.55;;;;;;;21.86;63.25;99464.36;2207356;79;21715;-81
2022/06/11 06:48:29;;;;;;;6.40;4.35;;;;;;;21.98;62.00;99468.05;2208681;79;21010;-80
2022/06/11 06:51:30;;;;;;;5.10;4.17;;;;;;;22.06;61.22;99462.58;2208252;79;20976;-81
2022/06/11 06:54:30;;;;;;;4.45;4.00;;;;;;;22.22;61.03;99472.80;2207516;79;21427;-81
2022/06/11 06:57:30;;;;;;;4.37;3.98;;;;;;;22.07;60.13;99474.96;2207151;79;20956;-81
2022/06/11 07:00:31;;;;;;;5.33;3.83;;;;;;;21.69;60.19;99474.06;2208359;79;21059;-81
2022/06/11 07:03:31;;;;;;;6.47;4.00;;;;;;;21.59;60.62;99475.15;2208708;79;20952;-82
2022/06/11 07:06:31;;;;;;;4.67;4.20;;;;;;;22.14;60.98;99472.11;2206979;79;20983;-80
2022/06/11 07:09:32;;;;;;;5.97;4.28;;;;;;;22.71;58.75;99471.98;2207084;79;21002;-82
2022/06/11 07:12:32;;;;;;;4.97;3.83;;;;;;;23.20;59.18;99470.16;2207048;79;20948;-81
2022/06/11 07:15:33;;;;;;;4.00;3.58;;;;;;;23.85;56.57;99471.33;2206737;79;20968;-81
2022/06/11 07:18:33;;;;;;;3.83;3.22;;;;;;;24.07;56.28;99477.70;2206652;79;21019;-80
2022/06/11 07:21:33;;;;;;;4.12;3.08;;;;;;;24.07;54.91;99480.37;2207516;79;21019;-81
2022/06/11 07:24:34;;;;;;;3.42;3.12;;;;;;;23.99;53.70;99473.08;2208026;79;20968;-80
2022/06/11 07:27:35;;;;;;;3.33;3.10;;;;;;;23.46;54.58;99480.95;2206377;79;21020;-80
2022/06/11 07:30:35;;;;;;;3.75;3.00;;;;;;;23.92;54.11;99479.53;2205708;79;21696;-81
2022/06/11 07:33:35;;;;;;;2.45;2.25;;;;;;;24.20;53.24;99484.84;2207054;79;20995;-80
2022/06/11 07:36:35;;;;;;;2.70;2.47;;;;;;;24.56;52.29;99478.77;2208641;79;20992;-81
2022/06/11 07:39:36;;;;;;;3.52;2.98;;;;;;;24.71;48.39;99481.36;2208948;79;21308;-80
2022/06/11 07:42:38;;;;;;;2.90;2.70;;;;;;;24.76;48.57;99485.61;2209134;79;20950;-81
2022/06/11 07:45:39;;;;;;;3.22;2.20;;;;;;;24.84;49.20;99479.12;2195293;81;21368;-81
2022/06/11 07:48:39;;;;;;;2.30;2.20;;;;;;;24.77;47.74;99481.14;2208014;79;20979;-80
2022/06/11 07:51:39;;;;;;;2.95;2.70;;;;;;;24.78;49.18;99477.08;2207416;79;21457;-81
2022/06/11 07:54:40;;;;;;;2.62;2.42;;;;;;;24.93;45.20;99474.32;2209083;79;20933;-81
2022/06/11 07:57:40;;;;;;;3.55;2.42;;;;;;;24.70;46.54;99472.48;2207470;79;20992;-84
2022/06/11 08:00:40;;;;;;;2.37;2.12;;;;;;;24.69;47.18;99476.08;2207014;79;20984;-81
2022/06/11 08:03:41;;;;;;;2.70;2.50;;;;;;;24.71;46.82;99474.22;2207240;79;21206;-81
2022/06/11 08:06:41;;;;;;;2.72;2.52;;;;;;;24.84;45.23;99477.78;2206850;79;21011;-81
2022/06/11 08:09:42;;;;;;;2.37;2.25;;;;;;;24.66;46.07;99475.31;2206789;79;20939;-81
2022/06/11 08:12:42;;;;;;;3.12;2.27;;;;;;;25.01;46.27;99478.08;2207363;79;21000;-81
2022/06/11 08:15:43;;;;;;;4.12;1.92;;;;;;;25.48;44.63;99477.65;2208235;79;20999;-82
2022/06/11 08:18:44;;;;;;;2.10;1.90;;;;;;;25.49;42.86;99478.52;2207346;79;21003;-80
2022/06/11 08:21:43;;;;;;;2.55;2.33;;;;;;;25.66;43.43;99478.77;2206826;79;21004;-81
2022/06/11 08:24:44;;;;;;;3.05;2.20;;;;;;;25.65;43.67;99475.65;2206119;79;21023;-81
2022/06/11 08:27:44;;;;;;;2.20;2.10;;;;;;;25.84;43.97;99466.46;2205687;79;21003;-81
2022/06/11 08:30:45;;;;;;;2.83;2.52;;;;;;;25.52;44.45;99469.05;2204997;79;21043;-80
2022/06/11 08:33:45;;;;;;;2.52;2.33;;;;;;;24.75;44.14;99478.98;2205122;79;21020;-81
2022/06/11 08:36:46;;;;;;;3.33;2.72;;;;;;;24.08;44.64;99475.91;2204884;81;21462;-80
2022/06/11 08:39:47;;;;;;;4.12;2.72;;;;;;;23.80;45.74;99467.94;2206066;79;21055;-81
2022/06/11 08:42:47;;;;;;;3.22;2.98;;;;;;;23.70;45.58;99471.81;2206285;79;20979;-82
2022/06/11 08:45:47;;;;;;;2.83;2.62;;;;;;;23.91;45.65;99467.59;2206994;79;21399;-81
2022/06/11 08:48:49;;;;;;;4.62;2.62;;;;;;;24.38;45.74;99468.73;2207596;79;20925;-82
2022/06/11 08:51:48;;;;;;;4.47;2.67;;;;;;;24.88;45.41;99463.40;2208172;79;20992;-81
2022/06/11 08:54:49;;;;;;;4.70;4.30;;;;;;;25.13;42.35;99461.59;2207745;79;20960;-81
2022/06/11 08:57:49;;;;;;;3.05;2.85;;;;;;;24.75;44.46;99466.98;2207575;79;21339;-80
2022/06/11 09:00:49;;;;;;;5.17;3.40;;;;;;;24.13;45.82;99461.50;2207180;79;21026;-81
2022/06/11 09:03:50;;;;;;;3.17;2.98;;;;;;;23.58;47.42;99465.53;2207399;79;20949;-81
2022/06/11 09:06:50;;;;;;;3.12;2.92;;;;;;;23.44;47.84;99465.47;2206959;79;22071;-81
2022/06/11 09:09:51;;;;;;;3.52;3.00;;;;;;;23.96;47.80;99462.98;2207423;79;20960;-81
2022/06/11 09:12:51;;;;;;;2.80;2.60;;;;;;;24.56;45.06;99458.75;2206430;79;20928;-81
2022/06/11 09:15:51;;;;;;;3.22;2.85;;;;;;;24.95;45.19;99454.23;2207485;79;20960;-81
2022/06/11 09:18:52;;;;;;;3.10;2.90;;;;;;;24.85;43.83;99459.50;2206946;79;21074;-81
2022/06/11 09:21:52;;;;;;;3.20;2.90;;;;;;;24.38;45.27;99464.73;2206132;79;21355;-80
2022/06/11 09:24:53;;;;;;;4.40;3.15;;;;;;;23.67;46.10;99461.25;2206125;79;20979;-80
2022/06/11 09:27:53;;;;;;;3.47;3.10;;;;;;;23.49;48.10;99454.66;2206103;79;20987;-79
2022/06/11 09:30:57;;;;;;;2.90;2.70;;;;;;;23.77;47.50;99454.70;2206051;81;21024;-80
2022/06/11 09:33:57;;;;;;;4.60;2.58;;;;;;;23.73;46.47;99451.72;2206417;79;20964;-80
2022/06/11 09:36:57;;;;;;;5.42;2.80;;;;;;;24.12;45.30;99449.55;2206208;79;21382;-81
2022/06/11 09:40:00;;;;;;;4.17;2.85;;;;;;;24.62;44.13;99444.31;2206004;81;21039;-81
2022/06/11 09:43:00;;;;;;;4.95;2.80;;;;;;;25.11;43.43;99435.41;2205970;79;21411;-80
2022/06/11 09:46:01;;;;;;;4.90;2.75;;;;;;;25.01;43.95;99439.35;2227049;79;21066;-82
2022/06/11 09:49:01;;;;;;;3.05;2.77;;;;;;;24.28;43.05;99437.96;2232788;79;21249;-80
2022/06/11 09:52:05;;;;;;;7.72;3.05;;;;;;;24.07;44.36;99432.36;2233547;79;20994;-81
2022/06/11 09:55:02;;;;;;;6.72;3.05;;;;;;;24.75;43.42;99429.14;2233773;79;20967;-82
2022/06/11 09:58:04;;;;;;;4.37;3.17;;;;;;;24.98;43.52;99432.79;2233373;79;20974;-81
2022/06/11 10:01:03;;;;;;;3.47;2.77;;;;;;;24.17;43.13;99422.72;2233585;79;21030;-81
2022/06/11 10:04:03;;;;;;;2.90;2.70;;;;;;;23.81;43.76;99424.36;2233479;79;21434;-81
2022/06/11 10:07:05;;;;;;;4.35;2.80;;;;;;;24.11;44.37;99419.80;2233937;79;21043;-80
2022/06/11 10:10:04;;;;;;;5.80;3.05;;;;;;;24.21;43.68;99420.36;2234091;79;20991;-81
2022/06/11 10:13:04;;;;;;;2.62;2.45;;;;;;;24.44;44.33;99420.49;2233053;79;21504;-80
2022/06/11 10:16:05;;;;;;;2.35;2.25;;;;;;;24.50;43.05;99417.61;2232697;79;20983;-80
2022/06/11 10:19:05;;;;;;;4.17;2.55;;;;;;;24.52;42.73;99420.22;2233083;79;21030;-81
2022/06/11 10:22:06;;;;;;;3.42;2.52;;;;;;;24.52;40.65;99411.75;2233201;79;20950;-81
2022/06/11 10:25:06;;;;;;;2.65;2.20;;;;;;;24.46;40.55;99415.97;2233939;79;21338;-80
2022/06/11 10:28:07;;;;;;;2.40;2.05;;;;;;;24.53;42.04;99406.82;2235881;79;20936;-81
2022/06/11 10:31:07;;;;;;;3.80;2.10;;;;;;;24.73;40.95;99415.44;2235220;80;20971;-80
2022/06/11 10:34:07;;;;;;;4.30;2.15;;;;;;;24.45;41.14;99428.91;2235097;79;20919;-80
2022/06/11 10:37:08;;;;;;;1.92;1.82;;;;;;;24.38;40.29;99416.24;2235328;80;21608;-80
2022/06/11 10:40:08;;;;;;;7.97;2.75;;;;;;;24.46;40.77;99407.97;2235167;79;21018;-80
2022/06/11 10:43:08;;;;;;;3.33;2.10;;;;;;;24.65;40.66;99396.16;2236173;79;20919;-79
2022/06/11 10:46:09;;;;;;;2.00;1.80;;;;;;;24.50;39.25;99397.59;2235998;79;21327;-79
2022/06/11 10:49:09;;;;;;;1.95;1.72;;;;;;;24.23;40.30;99397.17;2235009;79;20991;-79
2022/06/11 10:52:10;;;;;;;3.95;1.80;;;;;;;24.35;38.57;99393.67;2236299;79;20967;-78
2022/06/11 10:55:10;;;;;;;4.37;1.98;;;;;;;24.45;39.82;99392.42;2235147;80;21363;-77
2022/06/11 10:58:11;;;;;;;1.90;1.80;;;;;;;24.62;38.46;99402.95;2235870;80;20912;-78
2022/06/11 11:01:11;;;;;;;1.98;1.70;;;;;;;24.52;39.51;99390.40;2236239;79;21016;-78
2022/06/11 11:04:12;;;;;;;1.70;1.60;;;;;;;24.63;40.05;99382.88;2235798;79;21361;-78
2022/06/11 11:07:12;;;;;;;3.47;1.60;;;;;;;24.72;39.38;99383.00;2234886;79;20893;-78
2022/06/11 11:10:12;;;;;;;1.85;1.50;;;;;;;24.63;36.17;99397.55;2236370;79;20904;-79
2022/06/11 11:13:13;;;;;;;2.52;1.70;;;;;;;24.62;37.45;99386.47;2234874;80;20990;-79
2022/06/11 11:16:15;;;;;;;2.95;2.20;;;;;;;24.58;36.01;99384.84;2233533;79;20967;-79
2022/06/11 11:19:14;;;;;;;3.25;1.62;;;;;;;24.63;37.62;99382.88;2233128;79;21261;-80
2022/06/11 11:22:14;;;;;;;8.75;2.10;;;;;;;24.77;38.70;99381.89;2232053;80;21062;-78
2022/06/11 11:25:14;;;;;;;2.85;1.62;;;;;;;24.90;37.94;99378.77;2231519;79;20987;-79
2022/06/11 11:28:15;;;;;;;4.17;1.82;;;;;;;25.08;37.35;99372.75;2234071;79;20991;-79
2022/06/11 11:31:15;;;;;;;2.58;1.67;;;;;;;25.09;37.89;99379.84;2234853;78;21042;-79
2022/06/11 11:34:16;;;;;;;5.25;2.02;;;;;;;25.20;38.28;99383.45;2234116;79;20979;-80
2022/06/11 11:37:16;;;;;;;2.70;1.50;;;;;;;25.23;36.42;99371.31;2234548;79;21433;-79
2022/06/11 11:40:16;;;;;;;4.65;1.72;;;;;;;25.30;37.50;99365.67;2235186;80;20986;-80
2022/06/11 11:43:17;;;;;;;3.30;1.70;;;;;;;25.34;37.56;99372.63;2234200;80;20967;-79
2022/06/11 11:46:17;;;;;;;3.80;1.60;;;;;;;25.33;38.03;99365.55;2233385;79;20995;-80
2022/06/11 11:49:18;;;;;;;3.87;1.85;;;;;;;25.36;37.50;99372.10;2233787;79;20967;-80
2022/06/11 11:52:18;;;;;;;5.55;1.72;;;;;;;25.34;37.42;99370.42;2234382;79;21010;-79
2022/06/11 11:55:18;;;;;;;3.30;1.82;;;;;;;25.34;36.09;99368.63;2234491;79;21002;-79
2022/06/11 11:58:19;;;;;;;6.08;1.90;;;;;;;25.40;37.41;99372.84;2235679;80;21355;-80
2022/06/11 12:01:19;;;;;;;4.85;1.55;;;;;;;25.58;37.04;99364.55;2234896;79;21094;-79
2022/06/11 12:04:20;;;;;;;4.10;1.77;;;;;;;25.69;38.42;99361.88;2234856;79;20956;-80
2022/06/11 12:07:20;;;;;;;3.72;1.52;;;;;;;25.74;37.26;99363.02;2235746;79;21449;-80
2022/06/11 12:10:20;;;;;;;3.52;1.77;;;;;;;25.66;37.22;99367.81;2235151;79;20959;-80
2022/06/11 12:13:21;;;;;;;2.42;1.47;;;;;;;25.74;35.46;99352.33;2236584;79;20897;-79
2022/06/11 12:16:21;;;;;;;2.08;1.50;;;;;;;25.95;35.85;99351.42;2235572;79;20970;-80
2022/06/11 12:19:22;;;;;;;3.35;1.50;;;;;;;25.89;34.99;99359.70;2234189;80;20987;-80
2022/06/11 12:22:22;;;;;;;4.85;1.80;;;;;;;25.87;35.95;99354.88;2234782;79;20986;-80
2022/06/11 12:25:23;;;;;;;2.67;1.60;;;;;;;25.94;34.72;99352.35;2234935;79;20904;-79
2022/06/11 12:28:23;;;;;;;3.62;2.10;;;;;;;25.79;34.24;99342.77;2234786;79;20946;-79
2022/06/11 12:31:24;;;;;;;2.40;1.45;;;;;;;25.68;35.64;99366.81;2234513;79;21015;-77
2022/06/11 12:34:24;;;;;;;7.05;1.47;;;;;;;25.72;34.27;99355.53;2234142;79;20979;-79
2022/06/11 12:37:24;;;;;;;2.12;1.62;;;;;;;25.85;33.99;99354.08;2235218;79;20990;-79
2022/06/11 12:40:25;;;;;;;4.95;2.20;;;;;;;25.85;36.25;99347.86;2235417;79;20963;-78
2022/06/11 12:43:25;;;;;;;2.02;1.60;;;;;;;25.92;36.09;99352.89;2235484;79;20954;-78
2022/06/11 12:46:25;;;;;;;2.30;1.45;;;;;;;25.95;34.05;99356.77;2218202;79;20944;-79
2022/06/11 12:49:28;;;;;;;5.87;1.67;;;;;;;25.99;33.60;99354.36;2209286;79;20924;-80
2022/06/11 12:52:29;;;;;;;2.50;1.50;;;;;;;25.87;33.41;99350.88;2209166;81;20948;-79
2022/06/11 12:55:29;;;;;;;1.92;1.67;;;;;;;25.78;33.51;99361.95;2208792;79;20960;-79
2022/06/11 12:58:30;;;;;;;7.55;1.70;;;;;;;25.77;35.45;99345.52;2209196;79;20969;-80
2022/06/11 13:01:30;;;;;;;2.58;1.30;;;;;;;25.89;35.73;99346.33;2208937;79;21004;-80
2022/06/11 13:04:33;;;;;;;4.42;1.62;;;;;;;26.03;36.16;99343.97;2209235;79;21296;-79
2022/06/11 13:07:33;;;;;;;4.17;1.57;;;;;;;26.02;35.21;99350.25;2209305;81;21328;-80
2022/06/11 13:10:34;;;;;;;7.65;1.67;;;;;;;26.07;36.84;99344.70;2209353;81;20949;-80
2022/06/11 13:13:34;;;;;;;2.42;1.50;;;;;;;25.96;36.10;99346.47;2209351;79;20908;-79
2022/06/11 13:16:34;;;;;;;5.17;1.45;;;;;;;25.95;35.07;99344.73;2209551;81;20949;-80
2022/06/11 13:19:35;;;;;;;4.75;1.77;;;;;;;25.91;35.43;99340.45;2209533;79;20944;-80
2022/06/11 13:22:35;;;;;;;4.78;1.50;;;;;;;25.86;35.61;99340.24;2209269;79;21285;-79
2022/06/11 13:25:36;;;;;;;3.22;1.27;;;;;;;25.89;35.81;99342.78;2209399;79;21298;-80
2022/06/11 13:28:36;;;;;;;2.65;1.62;;;;;;;25.75;34.73;99343.37;2209212;79;20921;-79
2022/06/11 13:31:36;;;;;;;3.60;1.30;;;;;;;25.75;34.04;99347.38;2209143;81;20999;-79
2022/06/11 13:34:37;;;;;;;3.62;1.32;;;;;;;25.82;34.39;99342.17;2209364;79;20953;-80
2022/06/11 13:37:37;;;;;;;2.85;1.55;;;;;;;25.88;33.62;99339.24;2209242;79;20917;-79
2022/06/11 13:40:38;;;;;;;3.00;1.37;;;;;;;25.87;35.28;99344.19;2209176;79;20984;-79
2022/06/11 13:43:38;;;;;;;25.43;2.72;;;;;;;25.94;34.46;99353.69;2209234;79;20878;-79
2022/06/11 13:46:43;;;;;;;4.62;1.47;;;;;;;25.96;34.93;99352.28;2209186;79;20960;-80
2022/06/11 13:49:39;;;;;;;4.10;1.40;;;;;;;26.06;34.81;99360.35;2209438;79;20936;-80
2022/06/11 13:55:59;;;;;;;1.32;1.20;;;;;;;26.17;33.50;99351.86;2208288;81;20968;-79
2022/06/11 13:58:59;;;;;;;2.40;1.17;;;;;;;26.12;34.33;99348.52;2209262;79;20937;-80
2022/06/11 14:01:59;;;;;;;2.50;1.27;;;;;;;26.32;32.13;99339.14;2209050;79;21016;-80
2022/06/11 14:05:00;;;;;;;2.22;1.60;;;;;;;26.34;32.77;99334.62;2209258;79;20901;-80